createdAt,value
2024-03-16T00:02:39.749Z,65.45
2024-03-16T00:05:28.883Z,65.65
2024-03-16T00:08:16.898Z,65.95
2024-03-16T00:11:04.683Z,65.75
2024-03-16T00:13:52.564Z,66.06
2024-03-16T00:16:40.309Z,66.06
2024-03-16T00:19:28.104Z,66.16
2024-03-16T00:22:16.539Z,66.08
2024-03-16T00:25:06.193Z,66.12
2024-03-16T00:27:54.240Z,65.93
2024-03-16T00:30:43.082Z,66.22
2024-03-16T00:33:30.938Z,66.20
2024-03-16T00:36:18.924Z,66.42
2024-03-16T00:39:16.849Z,66.22
2024-03-16T00:42:05.217Z,66.51
2024-03-16T00:44:53.004Z,66.49
2024-03-16T00:47:41.603Z,66.43
2024-03-16T00:50:30.216Z,66.30
2024-03-16T00:53:19.199Z,66.53
2024-03-16T00:56:07.067Z,66.54
2024-03-16T00:58:55.066Z,66.54
2024-03-16T01:01:44.151Z,66.45
2024-03-16T01:04:35.469Z,66.62
2024-03-16T01:07:23.778Z,66.43
2024-03-16T01:10:13.378Z,66.25
2024-03-16T01:13:01.711Z,66.50
2024-03-16T01:15:51.139Z,66.54
2024-03-16T01:18:41.103Z,66.55
2024-03-16T01:21:29.186Z,66.56
2024-03-16T01:24:17.063Z,66.68
2024-03-16T01:27:04.726Z,66.70
2024-03-16T01:29:52.734Z,66.85
2024-03-16T01:32:40.438Z,66.46
2024-03-16T01:35:28.409Z,66.43
2024-03-16T01:38:19.731Z,66.69
2024-03-16T01:41:07.950Z,66.67
2024-03-16T01:44:10.764Z,66.64
2024-03-16T01:46:59.022Z,66.70
2024-03-16T01:49:47.082Z,67.01
2024-03-16T01:52:34.683Z,66.99
2024-03-16T01:55:22.732Z,67.14
2024-03-16T01:58:10.600Z,67.32
2024-03-16T02:00:58.840Z,67.42
2024-03-16T02:03:47.900Z,67.09
2024-03-16T02:06:36.103Z,67.33
2024-03-16T02:09:24.593Z,67.42
2024-03-16T02:12:14.155Z,67.19
2024-03-16T02:15:03.669Z,67.18
2024-03-16T02:17:51.942Z,67.58
2024-03-16T02:20:39.937Z,67.75
2024-03-16T02:23:27.957Z,68.47
2024-03-16T02:26:15.640Z,69.04
2024-03-16T02:29:04.000Z,69.41
2024-03-16T02:31:54.281Z,69.39
2024-03-16T02:34:43.098Z,69.87
2024-03-16T02:37:31.241Z,70.67
2024-03-16T02:40:18.978Z,71.30
2024-03-16T02:43:07.552Z,71.51
2024-03-16T02:45:59.001Z,71.41
2024-03-16T02:48:47.148Z,72.28
2024-03-16T02:51:35.343Z,72.43
2024-03-16T02:54:23.405Z,72.71
2024-03-16T02:57:11.221Z,72.52
2024-03-16T02:59:58.786Z,72.60
2024-03-16T03:02:46.586Z,72.83
2024-03-16T03:05:34.408Z,73.12
2024-03-16T03:08:22.608Z,73.04
2024-03-16T03:11:10.851Z,72.96
2024-03-16T03:13:58.584Z,73.16
2024-03-16T03:16:46.386Z,73.13
2024-03-16T03:19:34.159Z,73.41
2024-03-16T03:22:21.852Z,73.19
2024-03-16T03:25:11.670Z,73.25
2024-03-16T03:28:00.337Z,72.95
2024-03-16T03:30:50.306Z,73.15
2024-03-16T03:33:39.487Z,72.82
2024-03-16T03:36:27.930Z,72.54
2024-03-16T03:39:17.229Z,72.61
2024-03-16T03:42:05.640Z,72.71
2024-03-16T03:45:12.387Z,72.64
2024-03-16T03:48:19.751Z,72.68
2024-03-16T03:51:08.157Z,73.13
2024-03-16T03:53:58.919Z,72.47
2024-03-16T03:56:47.104Z,72.19
2024-03-16T03:59:35.376Z,72.31
2024-03-16T04:02:23.211Z,71.97
2024-03-16T04:05:11.068Z,71.45
2024-03-16T04:07:59.934Z,71.06
2024-03-16T04:10:48.230Z,71.08
2024-03-16T04:13:35.882Z,71.40
2024-03-16T04:16:23.773Z,71.13
2024-03-16T04:19:12.270Z,70.91
2024-03-16T04:22:00.380Z,70.79
2024-03-16T04:24:48.517Z,70.58
2024-03-16T04:27:37.360Z,70.75
2024-03-16T04:30:25.255Z,70.94
2024-03-16T04:33:13.794Z,70.59
2024-03-16T04:36:01.481Z,70.67
2024-03-16T04:38:49.675Z,70.62
2024-03-16T04:41:37.312Z,70.63
2024-03-16T04:44:25.045Z,70.67
2024-03-16T04:47:12.914Z,70.64
2024-03-16T04:50:01.561Z,70.59
2024-03-16T04:52:49.591Z,70.55
2024-03-16T04:55:37.360Z,71.00
2024-03-16T04:58:26.475Z,70.86
2024-03-16T05:01:14.970Z,70.22
2024-03-16T05:04:03.039Z,70.37
2024-03-16T05:06:50.949Z,70.59
2024-03-16T05:09:38.779Z,70.56
2024-03-16T05:12:26.258Z,70.58
2024-03-16T05:15:14.012Z,70.78
2024-03-16T05:18:01.752Z,71.29
2024-03-16T05:20:52.301Z,70.70
2024-03-16T05:23:41.035Z,70.89
2024-03-16T05:26:31.898Z,70.66
2024-03-16T05:29:20.201Z,70.52
2024-03-16T05:32:08.130Z,70.25
2024-03-16T05:34:56.572Z,70.46
2024-03-16T05:37:44.541Z,70.13
2024-03-16T05:40:32.540Z,70.07
2024-03-16T05:43:20.229Z,70.27
2024-03-16T05:46:07.735Z,70.19
2024-03-16T05:48:55.903Z,70.20
2024-03-16T05:51:44.827Z,70.23
2024-03-16T05:54:35.378Z,70.24
2024-03-16T05:57:23.692Z,70.07
2024-03-16T06:00:15.708Z,70.20
2024-03-16T06:03:04.052Z,70.36
2024-03-16T06:05:52.903Z,70.43
2024-03-16T06:08:40.634Z,70.46
2024-03-16T06:11:28.465Z,70.36
2024-03-16T06:14:16.918Z,70.42
2024-03-16T06:17:05.207Z,70.16
2024-03-16T06:19:54.993Z,70.27
2024-03-16T06:22:43.212Z,70.02
2024-03-16T06:25:37.143Z,70.18
2024-03-16T06:28:25.457Z,70.40
2024-03-16T06:31:13.243Z,69.47
2024-03-16T06:34:05.964Z,69.40
2024-03-16T06:36:54.486Z,69.77
2024-03-16T06:39:42.666Z,69.81
2024-03-16T06:42:30.802Z,69.71
2024-03-16T06:45:18.721Z,70.37
2024-03-16T06:48:07.379Z,69.69
2024-03-16T06:50:55.388Z,69.66
2024-03-16T06:53:43.602Z,70.10
2024-03-16T06:56:32.337Z,69.57
2024-03-16T06:59:20.545Z,69.70
2024-03-16T07:02:09.345Z,69.52
2024-03-16T07:04:57.395Z,69.28
2024-03-16T07:07:45.308Z,69.37
2024-03-16T07:10:33.127Z,68.90
2024-03-16T07:13:21.470Z,69.54
2024-03-16T07:16:15.117Z,69.09
2024-03-16T07:19:04.040Z,68.28
2024-03-16T07:21:52.405Z,68.65
2024-03-16T07:24:40.178Z,68.20
2024-03-16T07:27:27.720Z,68.61
2024-03-16T07:30:15.547Z,68.34
2024-03-16T07:33:04.810Z,67.68
2024-03-16T07:35:53.451Z,68.04
2024-03-16T07:38:41.479Z,68.05
2024-03-16T07:41:29.592Z,68.41
2024-03-16T07:44:17.348Z,67.58
2024-03-16T07:47:05.601Z,67.99
2024-03-16T07:49:53.719Z,67.68
2024-03-16T07:52:41.333Z,67.64
2024-03-16T07:55:31.210Z,67.94
2024-03-16T07:58:19.168Z,66.66
2024-03-16T08:01:07.301Z,66.87
2024-03-16T08:03:55.063Z,66.32
2024-03-16T08:06:43.134Z,67.02
2024-03-16T08:09:31.858Z,67.05
2024-03-16T08:12:19.667Z,66.34
2024-03-16T08:15:08.273Z,66.40
2024-03-16T08:17:58.767Z,65.79
2024-03-16T08:20:46.872Z,65.53
2024-03-16T08:23:34.499Z,65.41
2024-03-16T08:26:22.384Z,65.61
2024-03-16T08:29:10.173Z,64.01
2024-03-16T08:31:59.579Z,64.02
2024-03-16T08:34:47.790Z,63.08
2024-03-16T08:37:35.708Z,62.59
2024-03-16T08:40:23.420Z,63.52
2024-03-16T08:43:12.613Z,62.73
2024-03-16T08:46:07.310Z,62.00
2024-03-16T08:48:55.042Z,62.16
2024-03-16T08:51:44.157Z,62.21
2024-03-16T08:54:39.007Z,61.86
2024-03-16T08:57:28.121Z,60.62
2024-03-16T09:00:16.037Z,60.31
2024-03-16T09:03:06.061Z,59.94
2024-03-16T09:05:54.688Z,61.14
2024-03-16T09:08:42.908Z,60.14
2024-03-16T09:11:30.915Z,61.94
2024-03-16T09:14:18.810Z,61.37
2024-03-16T09:17:06.752Z,61.04
2024-03-16T09:19:55.480Z,62.23
2024-03-16T09:22:44.775Z,62.28
2024-03-16T09:25:33.026Z,60.95
2024-03-16T09:28:23.167Z,58.68
2024-03-16T09:31:11.665Z,58.72
2024-03-16T09:34:00.776Z,58.25
2024-03-16T09:36:49.025Z,58.04
2024-03-16T09:39:36.767Z,57.85
2024-03-16T09:42:24.362Z,57.21
2024-03-16T09:45:19.596Z,55.59
2024-03-16T09:48:10.776Z,55.57
2024-03-16T09:50:59.362Z,54.90
2024-03-16T09:53:47.227Z,55.36
2024-03-16T09:56:38.083Z,55.28
2024-03-16T09:59:30.951Z,55.80
2024-03-16T10:02:25.689Z,54.07
2024-03-16T10:05:14.493Z,54.27
2024-03-16T10:08:02.644Z,54.89
2024-03-16T10:10:51.925Z,54.69
2024-03-16T10:13:54.286Z,55.00
2024-03-16T10:16:42.534Z,55.88
2024-03-16T10:19:33.395Z,56.44
2024-03-16T10:22:21.513Z,56.65
2024-03-16T10:25:11.041Z,57.32
2024-03-16T10:27:58.633Z,56.35
2024-03-16T10:30:47.134Z,55.84
2024-03-16T10:33:39.600Z,55.32
2024-03-16T10:36:30.270Z,55.51
2024-03-16T10:39:19.026Z,56.50
2024-03-16T10:42:16.719Z,55.74
2024-03-16T10:45:05.211Z,54.50
2024-03-16T10:47:57.194Z,54.17
2024-03-16T10:50:48.629Z,53.66
2024-03-16T10:53:40.700Z,53.61
2024-03-16T10:56:33.621Z,55.35
2024-03-16T10:59:34.237Z,54.93
2024-03-16T11:02:24.510Z,53.93
2024-03-16T11:05:40.648Z,54.04
2024-03-16T11:08:47.843Z,55.14
2024-03-16T11:11:36.604Z,53.95
2024-03-16T11:14:26.287Z,54.12
2024-03-16T11:17:27.695Z,55.78
2024-03-16T11:20:39.241Z,54.75
2024-03-16T11:23:28.645Z,54.62
2024-03-16T11:26:28.575Z,54.98
2024-03-16T11:29:19.983Z,55.74
2024-03-16T11:32:11.579Z,57.58
2024-03-16T11:34:59.318Z,53.75
2024-03-16T11:37:50.588Z,53.80
2024-03-16T11:40:43.992Z,53.10
2024-03-16T11:43:31.937Z,53.81
2024-03-16T11:46:20.643Z,52.34
2024-03-16T11:49:16.036Z,52.38
2024-03-16T11:52:05.919Z,52.61
2024-03-16T11:54:53.735Z,53.80
2024-03-16T11:57:41.902Z,51.84
2024-03-16T12:00:30.670Z,51.74
2024-03-16T12:03:21.552Z,51.67
2024-03-16T12:06:11.531Z,50.39
2024-03-16T12:08:59.165Z,51.22
2024-03-16T12:11:49.876Z,50.21
2024-03-16T12:14:43.232Z,49.91
2024-03-16T12:17:32.199Z,50.57
2024-03-16T12:20:21.305Z,51.00
2024-03-16T12:23:09.824Z,52.24
2024-03-16T12:25:59.836Z,52.24
2024-03-16T12:28:49.331Z,52.95
2024-03-16T12:31:39.372Z,54.05
2024-03-16T12:34:29.181Z,55.61
2024-03-16T12:37:17.605Z,58.36
2024-03-16T12:40:07.296Z,63.47
2024-03-16T12:42:55.426Z,66.42
2024-03-16T12:45:43.217Z,67.80
2024-03-16T12:48:32.027Z,68.85
2024-03-16T12:51:20.872Z,69.87
2024-03-16T12:54:10.976Z,70.03
2024-03-16T12:56:59.307Z,70.68
2024-03-16T12:59:47.668Z,71.99
2024-03-16T13:02:35.821Z,73.16
2024-03-16T13:05:23.897Z,74.35
2024-03-16T13:08:11.904Z,75.67
2024-03-16T13:11:00.242Z,76.32
2024-03-16T13:13:48.762Z,76.58
2024-03-16T13:16:38.216Z,76.47
2024-03-16T13:19:27.799Z,75.27
2024-03-16T13:22:15.652Z,75.26
2024-03-16T13:25:04.980Z,75.99
2024-03-16T13:27:52.375Z,76.07
2024-03-16T13:30:40.466Z,75.57
2024-03-16T13:33:28.329Z,75.97
2024-03-16T13:36:16.957Z,76.62
2024-03-16T13:39:08.973Z,77.23
2024-03-16T13:41:56.817Z,77.43
2024-03-16T13:44:45.214Z,77.81
2024-03-16T13:47:33.405Z,78.50
2024-03-16T13:50:21.352Z,79.18
2024-03-16T13:53:09.494Z,79.82
2024-03-16T13:55:58.971Z,80.05
2024-03-16T13:58:47.221Z,80.63
2024-03-16T14:01:35.783Z,80.75
2024-03-16T14:04:23.817Z,81.03
2024-03-16T14:07:11.640Z,81.17
2024-03-16T14:10:02.193Z,81.60
2024-03-16T14:12:53.382Z,79.87
2024-03-16T14:15:41.332Z,80.69
2024-03-16T14:18:29.683Z,80.75
2024-03-16T14:21:17.330Z,80.54
2024-03-16T14:24:05.624Z,81.20
2024-03-16T14:26:53.394Z,81.03
2024-03-16T14:29:41.401Z,79.30
2024-03-16T14:32:29.884Z,79.65
2024-03-16T14:35:17.670Z,78.38
2024-03-16T14:38:06.693Z,79.20
2024-03-16T14:40:55.799Z,80.26
2024-03-16T14:43:44.794Z,80.75
2024-03-16T14:46:32.731Z,80.25
2024-03-16T14:49:23.020Z,80.22
2024-03-16T14:52:11.503Z,80.00
2024-03-16T14:55:00.328Z,79.25
2024-03-16T14:57:48.378Z,79.63
2024-03-16T15:00:37.147Z,80.70
2024-03-16T15:03:24.870Z,79.37
2024-03-16T15:06:13.213Z,79.49
2024-03-16T15:09:08.050Z,79.00
2024-03-16T15:11:56.058Z,76.96
2024-03-16T15:14:46.687Z,76.06
2024-03-16T15:17:36.553Z,77.16
2024-03-16T15:20:26.227Z,76.25
2024-03-16T15:23:13.756Z,76.87
2024-03-16T15:26:16.972Z,76.05
2024-03-16T15:29:04.966Z,76.11
2024-03-16T15:31:52.942Z,76.14
2024-03-16T15:34:40.596Z,75.34
2024-03-16T15:37:28.883Z,74.94
2024-03-16T15:40:16.994Z,75.53
2024-03-16T15:43:05.018Z,75.34
2024-03-16T15:45:52.632Z,75.17
2024-03-16T15:48:40.190Z,74.91
2024-03-16T15:51:29.975Z,72.59
2024-03-16T15:54:17.783Z,73.10
2024-03-16T15:57:07.303Z,73.60
2024-03-16T15:59:55.230Z,72.94
2024-03-16T16:02:43.186Z,73.45
2024-03-16T16:05:31.104Z,74.12
2024-03-16T16:08:19.253Z,73.15
2024-03-16T16:11:08.039Z,73.34
2024-03-16T16:13:56.141Z,74.00
2024-03-16T16:16:44.269Z,74.16
2024-03-16T16:19:32.421Z,74.07
2024-03-16T16:22:20.506Z,73.63
2024-03-16T16:25:08.736Z,74.24
2024-03-16T16:27:56.493Z,74.65
2024-03-16T16:30:44.722Z,74.84
2024-03-16T16:33:32.492Z,75.05
2024-03-16T16:36:20.671Z,75.48
2024-03-16T16:39:08.815Z,75.58
2024-03-16T16:41:56.750Z,75.77
2024-03-16T16:44:44.688Z,75.72
2024-03-16T16:47:32.525Z,75.82
2024-03-16T16:50:20.273Z,76.18
2024-03-16T16:53:09.839Z,75.72
2024-03-16T16:55:58.396Z,76.08
2024-03-16T16:58:46.025Z,76.07
2024-03-16T17:01:33.866Z,76.17
2024-03-16T17:04:21.601Z,76.24
2024-03-16T17:07:14.055Z,76.07
2024-03-16T17:10:13.458Z,75.61
2024-03-16T17:13:03.141Z,75.05
2024-03-16T17:15:52.087Z,75.40
2024-03-16T17:18:39.657Z,75.76
2024-03-16T17:21:27.380Z,74.70
2024-03-16T17:24:15.197Z,74.05
2024-03-16T17:27:07.327Z,74.29
2024-03-16T17:29:55.689Z,74.15
2024-03-16T17:32:44.038Z,73.90
2024-03-16T17:35:34.988Z,74.34
2024-03-16T17:38:25.970Z,73.50
2024-03-16T17:41:14.162Z,73.52
2024-03-16T17:44:02.058Z,74.04
2024-03-16T17:46:49.804Z,74.29
2024-03-16T17:49:39.970Z,74.86
2024-03-16T17:52:27.632Z,74.37
2024-03-16T17:55:16.803Z,73.92
2024-03-16T17:58:06.349Z,72.58
2024-03-16T18:00:54.191Z,71.21
2024-03-16T18:03:42.058Z,70.62
2024-03-16T18:06:29.761Z,70.50
2024-03-16T18:09:21.716Z,70.06
2024-03-16T18:12:12.185Z,69.68
2024-03-16T18:14:59.808Z,70.10
2024-03-16T18:17:54.664Z,69.53
2024-03-16T18:20:46.767Z,70.13
2024-03-16T18:23:35.516Z,70.06
2024-03-16T18:26:23.456Z,70.00
2024-03-16T18:29:11.103Z,70.21
2024-03-16T18:31:58.933Z,70.63
2024-03-16T18:34:47.067Z,69.99
2024-03-16T18:37:35.136Z,70.39
2024-03-16T18:40:22.949Z,70.42
2024-03-16T18:43:15.940Z,70.46
2024-03-16T18:46:04.665Z,71.19
2024-03-16T18:48:54.686Z,71.07
2024-03-16T18:51:42.722Z,71.41
2024-03-16T18:54:30.529Z,71.24
2024-03-16T18:57:20.006Z,71.47
2024-03-16T19:00:18.391Z,71.55
2024-03-16T19:03:14.397Z,71.90
2024-03-16T19:06:05.763Z,72.32
2024-03-16T19:08:53.704Z,72.66
2024-03-16T19:11:42.493Z,72.91
2024-03-16T19:14:30.681Z,73.07
2024-03-16T19:17:18.785Z,73.33
2024-03-16T19:20:08.711Z,73.54
2024-03-16T19:22:58.504Z,73.48
2024-03-16T19:25:46.742Z,73.35
2024-03-16T19:28:34.684Z,73.34
2024-03-16T19:31:25.921Z,73.18
2024-03-16T19:34:13.934Z,73.47
2024-03-16T19:37:02.080Z,73.56
2024-03-16T19:39:50.181Z,73.66
2024-03-16T19:42:38.779Z,73.90
2024-03-16T19:45:27.244Z,73.90
2024-03-16T19:48:15.711Z,74.05
2024-03-16T19:51:04.032Z,74.13
2024-03-16T19:53:51.931Z,74.17
2024-03-16T19:56:39.871Z,74.16
2024-03-16T19:59:27.964Z,74.13
2024-03-16T20:02:17.532Z,74.20
2024-03-16T20:05:06.084Z,74.12
2024-03-16T20:07:55.661Z,74.27
2024-03-16T20:10:43.769Z,74.57
2024-03-16T20:13:31.950Z,74.86
2024-03-16T20:16:19.836Z,75.07
2024-03-16T20:19:08.138Z,74.88
2024-03-16T20:21:57.594Z,75.06
2024-03-16T20:24:47.032Z,75.27
2024-03-16T20:27:35.992Z,75.22
2024-03-16T20:30:23.706Z,75.18
2024-03-16T20:33:14.034Z,75.31
2024-03-16T20:36:02.049Z,75.04
2024-03-16T20:38:50.063Z,75.45
2024-03-16T20:41:39.539Z,75.24
2024-03-16T20:44:27.525Z,75.29
2024-03-16T20:47:15.519Z,75.50
2024-03-16T20:50:07.488Z,75.20
2024-03-16T20:52:55.387Z,75.44
2024-03-16T20:55:44.043Z,75.40
2024-03-16T20:58:32.808Z,75.45
2024-03-16T21:01:20.845Z,75.44
2024-03-16T21:04:10.003Z,75.68
2024-03-16T21:06:57.985Z,75.75
2024-03-16T21:09:45.910Z,75.84
2024-03-16T21:12:37.441Z,75.75
2024-03-16T21:15:26.583Z,75.74
2024-03-16T21:18:15.870Z,75.78
2024-03-16T21:21:14.655Z,75.80
2024-03-16T21:25:20.735Z,75.92
2024-03-16T21:28:16.660Z,75.45
2024-03-16T21:31:06.974Z,75.67
2024-03-16T21:33:55.442Z,75.91
2024-03-16T21:36:43.882Z,76.03
2024-03-16T21:39:33.085Z,76.45
2024-03-16T21:42:20.849Z,76.69
2024-03-16T21:45:10.063Z,76.76
2024-03-16T21:47:58.162Z,76.57
2024-03-16T21:50:47.952Z,76.75
2024-03-16T21:53:37.377Z,76.94
2024-03-16T21:56:25.587Z,77.17
2024-03-16T21:59:13.809Z,77.36
2024-03-16T22:02:02.478Z,77.51
2024-03-16T22:04:53.295Z,78.24
2024-03-16T22:07:43.789Z,78.95
2024-03-16T22:10:32.837Z,79.60
2024-03-16T22:13:20.828Z,80.30
2024-03-16T22:16:09.239Z,80.61
2024-03-16T22:18:57.290Z,80.73
2024-03-16T22:21:45.310Z,81.00
2024-03-16T22:24:34.492Z,81.33
2024-03-16T22:27:25.088Z,81.47
2024-03-16T22:30:16.208Z,82.01
2024-03-16T22:33:06.692Z,82.40
2024-03-16T22:35:54.332Z,82.52
2024-03-16T22:38:42.313Z,82.77
2024-03-16T22:41:30.614Z,83.17
2024-03-16T22:44:19.972Z,81.28
2024-03-16T22:47:07.726Z,80.89
2024-03-16T22:49:55.821Z,82.20
2024-03-16T22:52:43.809Z,82.52
2024-03-16T22:55:32.016Z,83.01
2024-03-16T22:58:19.887Z,83.65
2024-03-16T23:01:07.973Z,83.64
2024-03-16T23:03:56.803Z,83.63
2024-03-16T23:06:47.801Z,83.94
2024-03-16T23:09:35.763Z,84.06
2024-03-16T23:12:24.188Z,84.65
2024-03-16T23:15:12.336Z,83.81
2024-03-16T23:18:00.070Z,83.47
2024-03-16T23:20:48.315Z,83.45
2024-03-16T23:23:37.426Z,83.33
2024-03-16T23:26:32.115Z,83.71
2024-03-16T23:29:25.004Z,83.54
2024-03-16T23:32:13.488Z,83.76
2024-03-16T23:35:01.735Z,83.79
2024-03-16T23:37:50.216Z,84.04
2024-03-16T23:40:39.296Z,83.93
2024-03-16T23:43:27.326Z,84.06
2024-03-16T23:46:15.239Z,83.92
2024-03-16T23:49:04.498Z,83.73
2024-03-16T23:51:52.490Z,84.18
2024-03-16T23:54:40.993Z,84.31
2024-03-16T23:57:28.837Z,84.24
